sensor_id;sensor_type;location;lat;lon;timestamp;pressure;altitude;pressure_sealevel;temperature;humidity
6028;BME280;3042;43.194;27.646;2023-04-28T00:01:22;101813.38;;;16.95;87.34
6028;BME280;3042;43.194;27.646;2023-04-28T00:03:49;101814.09;;;16.91;87.18
6028;BME280;3042;43.194;27.646;2023-04-28T00:06:17;101763.47;;;16.63;87.46
6028;BME280;3042;43.194;27.646;2023-04-28T00:08:46;101825.97;;;16.83;87.54
6028;BME280;3042;43.194;27.646;2023-04-28T00:11:13;101834.38;;;16.76;88.35
6028;BME280;3042;43.194;27.646;2023-04-28T00:13:40;101665.38;;;15.51;88.43
6028;BME280;3042;43.194;27.646;2023-04-28T00:16:08;101858.50;;;16.23;90.09
6028;BME280;3042;43.194;27.646;2023-04-28T00:18:35;101842.09;;;16.49;90.88
6028;BME280;3042;43.194;27.646;2023-04-28T00:21:02;101838.31;;;16.64;91.09
6028;BME280;3042;43.194;27.646;2023-04-28T00:23:29;101845.22;;;16.62;91.90
6028;BME280;3042;43.194;27.646;2023-04-28T00:25:58;101844.22;;;16.59;93.12
6028;BME280;3042;43.194;27.646;2023-04-28T00:28:25;101843.53;;;16.64;93.99
6028;BME280;3042;43.194;27.646;2023-04-28T00:30:52;101842.47;;;16.59;94.59
6028;BME280;3042;43.194;27.646;2023-04-28T00:33:19;101845.22;;;16.40;95.17
6028;BME280;3042;43.194;27.646;2023-04-28T00:35:46;101852.88;;;16.35;95.30
6028;BME280;3042;43.194;27.646;2023-04-28T00:38:13;101857.66;;;16.24;95.52
6028;BME280;3042;43.194;27.646;2023-04-28T00:40:41;101854.59;;;16.35;95.43
6028;BME280;3042;43.194;27.646;2023-04-28T00:43:09;101857.41;;;16.39;95.31
6028;BME280;3042;43.194;27.646;2023-04-28T00:45:36;101858.88;;;16.33;94.75
6028;BME280;3042;43.194;27.646;2023-04-28T00:48:04;101869.53;;;16.16;93.87
6028;BME280;3042;43.194;27.646;2023-04-28T00:50:31;101877.44;;;16.18;95.19
6028;BME280;3042;43.194;27.646;2023-04-28T00:52:59;101876.31;;;16.13;95.16
6028;BME280;3042;43.194;27.646;2023-04-28T00:55:27;101748.19;;;15.37;95.90
6028;BME280;3042;43.194;27.646;2023-04-28T00:57:58;101782.28;;;15.65;96.94
6028;BME280;3042;43.194;27.646;2023-04-28T01:00:27;101871.28;;;16.17;97.82
6028;BME280;3042;43.194;27.646;2023-04-28T01:02:55;101883.84;;;16.05;98.25
6028;BME280;3042;43.194;27.646;2023-04-28T01:05:24;101883.25;;;15.90;98.76
6028;BME280;3042;43.194;27.646;2023-04-28T01:07:51;101893.09;;;15.76;98.34
6028;BME280;3042;43.194;27.646;2023-04-28T01:10:19;101886.84;;;15.72;98.37
6028;BME280;3042;43.194;27.646;2023-04-28T01:12:46;101884.47;;;15.57;97.47
6028;BME280;3042;43.194;27.646;2023-04-28T01:15:15;101879.50;;;15.63;98.51
6028;BME280;3042;43.194;27.646;2023-04-28T01:17:45;101887.41;;;15.65;98.06
6028;BME280;3042;43.194;27.646;2023-04-28T01:20:12;101883.03;;;15.64;97.77
6028;BME280;3042;43.194;27.646;2023-04-28T01:22:39;101835.09;;;15.39;98.16
6028;BME280;3042;43.194;27.646;2023-04-28T01:25:08;101884.03;;;15.68;97.28
6028;BME280;3042;43.194;27.646;2023-04-28T01:27:36;101893.44;;;15.64;97.79
6028;BME280;3042;43.194;27.646;2023-04-28T01:30:04;101896.25;;;15.49;99.20
6028;BME280;3042;43.194;27.646;2023-04-28T01:32:31;101821.59;;;15.08;99.86
6028;BME280;3042;43.194;27.646;2023-04-28T01:34:58;101893.47;;;15.45;100.00
6028;BME280;3042;43.194;27.646;2023-04-28T01:37:25;101895.66;;;15.35;100.00
6028;BME280;3042;43.194;27.646;2023-04-28T01:39:52;101889.50;;;15.33;100.00
6028;BME280;3042;43.194;27.646;2023-04-28T01:42:21;101894.72;;;15.14;100.00
6028;BME280;3042;43.194;27.646;2023-04-28T01:44:48;101691.66;;;13.94;100.00
6028;BME280;3042;43.194;27.646;2023-04-28T01:47:15;101886.53;;;14.85;100.00
6028;BME280;3042;43.194;27.646;2023-04-28T01:49:42;101892.50;;;14.47;100.00
6028;BME280;3042;43.194;27.646;2023-04-28T01:52:09;101838.59;;;14.25;100.00
6028;BME280;3042;43.194;27.646;2023-04-28T01:54:36;101885.84;;;14.52;100.00
6028;BME280;3042;43.194;27.646;2023-04-28T01:57:03;101892.97;;;14.56;100.00
6028;BME280;3042;43.194;27.646;2023-04-28T01:59:32;101891.09;;;14.53;100.00
6028;BME280;3042;43.194;27.646;2023-04-28T02:01:59;101892.03;;;14.54;100.00
6028;BME280;3042;43.194;27.646;2023-04-28T02:04:26;101890.13;;;14.51;100.00
6028;BME280;3042;43.194;27.646;2023-04-28T02:06:55;101858.66;;;14.27;100.00
6028;BME280;3042;43.194;27.646;2023-04-28T02:09:23;101904.19;;;14.37;100.00
6028;BME280;3042;43.194;27.646;2023-04-28T02:11:50;101903.81;;;14.29;100.00
6028;BME280;3042;43.194;27.646;2023-04-28T02:14:17;101799.34;;;13.65;100.00
6028;BME280;3042;43.194;27.646;2023-04-28T02:16:46;101907.16;;;14.27;100.00
6028;BME280;3042;43.194;27.646;2023-04-28T02:19:13;101926.28;;;14.09;100.00
6028;BME280;3042;43.194;27.646;2023-04-28T02:21:41;101869.28;;;13.60;100.00
6028;BME280;3042;43.194;27.646;2023-04-28T02:24:08;101918.22;;;13.87;100.00
6028;BME280;3042;43.194;27.646;2023-04-28T02:26:35;101928.75;;;13.72;100.00
6028;BME280;3042;43.194;27.646;2023-04-28T02:29:03;101929.44;;;13.69;100.00
6028;BME280;3042;43.194;27.646;2023-04-28T02:31:30;101935.81;;;13.58;100.00
6028;BME280;3042;43.194;27.646;2023-04-28T02:33:58;101934.88;;;13.40;100.00
6028;BME280;3042;43.194;27.646;2023-04-28T02:36:26;101904.84;;;13.28;100.00
6028;BME280;3042;43.194;27.646;2023-04-28T02:38:53;101933.50;;;13.46;100.00
6028;BME280;3042;43.194;27.646;2023-04-28T02:41:20;101930.72;;;13.43;100.00
6028;BME280;3042;43.194;27.646;2023-04-28T02:43:47;101944.78;;;13.30;100.00
6028;BME280;3042;43.194;27.646;2023-04-28T02:46:14;101947.47;;;13.17;100.00
6028;BME280;3042;43.194;27.646;2023-04-28T02:48:41;101940.19;;;13.10;100.00
6028;BME280;3042;43.194;27.646;2023-04-28T02:51:10;101935.88;;;13.10;100.00
6028;BME280;3042;43.194;27.646;2023-04-28T02:53:38;101951.91;;;12.87;100.00
6028;BME280;3042;43.194;27.646;2023-04-28T02:56:06;101934.00;;;12.92;100.00
6028;BME280;3042;43.194;27.646;2023-04-28T02:58:33;101762.28;;;12.00;100.00
6028;BME280;3042;43.194;27.646;2023-04-28T03:01:00;101947.44;;;12.84;100.00
6028;BME280;3042;43.194;27.646;2023-04-28T03:03:27;101945.34;;;12.77;100.00
6028;BME280;3042;43.194;27.646;2023-04-28T03:05:54;101939.81;;;12.87;100.00
6028;BME280;3042;43.194;27.646;2023-04-28T03:08:23;101941.28;;;12.82;100.00
6028;BME280;3042;43.194;27.646;2023-04-28T03:10:51;101955.13;;;12.83;100.00
6028;BME280;3042;43.194;27.646;2023-04-28T03:13:18;101942.50;;;12.89;100.00
6028;BME280;3042;43.194;27.646;2023-04-28T03:15:45;101958.94;;;12.73;100.00
6028;BME280;3042;43.194;27.646;2023-04-28T03:18:12;101961.41;;;12.86;100.00
6028;BME280;3042;43.194;27.646;2023-04-28T03:20:39;101869.69;;;12.22;100.00
6028;BME280;3042;43.194;27.646;2023-04-28T03:23:06;101951.38;;;12.93;100.00
6028;BME280;3042;43.194;27.646;2023-04-28T03:25:35;101946.50;;;12.99;100.00
6028;BME280;3042;43.194;27.646;2023-04-28T03:28:02;101936.06;;;13.14;100.00
6028;BME280;3042;43.194;27.646;2023-04-28T03:30:30;101952.16;;;12.92;100.00
6028;BME280;3042;43.194;27.646;2023-04-28T03:32:57;101948.81;;;13.42;100.00
6028;BME280;3042;43.194;27.646;2023-04-28T03:35:24;101784.84;;;13.00;100.00
6028;BME280;3042;43.194;27.646;2023-04-28T03:37:52;101677.28;;;12.42;100.00
6028;BME280;3042;43.194;27.646;2023-04-28T03:40:19;101937.16;;;14.02;100.00
6028;BME280;3042;43.194;27.646;2023-04-28T03:42:47;101943.81;;;13.97;100.00
6028;BME280;3042;43.194;27.646;2023-04-28T03:45:15;101948.53;;;14.04;100.00
6028;BME280;3042;43.194;27.646;2023-04-28T03:47:42;101934.13;;;14.29;100.00
6028;BME280;3042;43.194;27.646;2023-04-28T03:50:09;101886.59;;;14.13;100.00
6028;BME280;3042;43.194;27.646;2023-04-28T03:52:36;101872.31;;;14.23;100.00
6028;BME280;3042;43.194;27.646;2023-04-28T03:55:04;101932.03;;;14.75;100.00
6028;BME280;3042;43.194;27.646;2023-04-28T03:57:31;101928.72;;;15.36;100.00
6028;BME280;3042;43.194;27.646;2023-04-28T04:00:00;101939.81;;;15.32;100.00
6028;BME280;3042;43.194;27.646;2023-04-28T04:02:27;101953.09;;;15.19;100.00
6028;BME280;3042;43.194;27.646;2023-04-28T04:04:54;101942.69;;;15.38;100.00
6028;BME280;3042;43.194;27.646;2023-04-28T04:07:21;101916.59;;;15.98;100.00
6028;BME280;3042;43.194;27.646;2023-04-28T04:09:49;101912.34;;;16.44;100.00
6028;BME280;3042;43.194;27.646;2023-04-28T04:12:16;101903.59;;;17.11;100.00
6028;BME280;3042;43.194;27.646;2023-04-28T04:14:43;101827.81;;;17.61;100.00
6028;BME280;3042;43.194;27.646;2023-04-28T04:17:12;101683.56;;;17.45;100.00
6028;BME280;3042;43.194;27.646;2023-04-28T04:19:39;101863.03;;;18.84;94.74
6028;BME280;3042;43.194;27.646;2023-04-28T04:22:08;101855.69;;;19.34;90.34
6028;BME280;3042;43.194;27.646;2023-04-28T04:24:42;101822.44;;;20.02;87.19
6028;BME280;3042;43.194;27.646;2023-04-28T04:27:10;101802.63;;;21.02;83.42
6028;BME280;3042;43.194;27.646;2023-04-28T04:29:37;101765.69;;;21.43;80.42
6028;BME280;3042;43.194;27.646;2023-04-28T04:32:04;101802.91;;;22.25;74.18
6028;BME280;3042;43.194;27.646;2023-04-28T04:34:33;101771.22;;;22.95;72.44
6028;BME280;3042;43.194;27.646;2023-04-28T04:37:00;101783.91;;;23.36;68.12
6028;BME280;3042;43.194;27.646;2023-04-28T04:39:27;101751.06;;;24.25;66.61
6028;BME280;3042;43.194;27.646;2023-04-28T04:41:54;101755.69;;;24.92;63.27
6028;BME280;3042;43.194;27.646;2023-04-28T04:44:22;101731.00;;;25.56;60.14
6028;BME280;3042;43.194;27.646;2023-04-28T04:46:49;101732.63;;;26.14;58.33
6028;BME280;3042;43.194;27.646;2023-04-28T04:49:16;101760.06;;;25.93;56.12
6028;BME280;3042;43.194;27.646;2023-04-28T04:51:45;101770.66;;;25.83;55.58
6028;BME280;3042;43.194;27.646;2023-04-28T04:54:12;101788.38;;;25.41;54.93
6028;BME280;3042;43.194;27.646;2023-04-28T04:56:39;101793.66;;;25.40;54.60
6028;BME280;3042;43.194;27.646;2023-04-28T04:59:07;101793.66;;;25.47;56.20
6028;BME280;3042;43.194;27.646;2023-04-28T05:01:34;101773.28;;;25.94;56.06
6028;BME280;3042;43.194;27.646;2023-04-28T05:04:01;101776.84;;;25.93;54.68
6028;BME280;3042;43.194;27.646;2023-04-28T05:06:28;101712.47;;;25.46;53.25
6028;BME280;3042;43.194;27.646;2023-04-28T05:08:57;101797.19;;;25.31;53.97
6028;BME280;3042;43.194;27.646;2023-04-28T05:11:24;101790.13;;;25.55;54.00
6028;BME280;3042;43.194;27.646;2023-04-28T05:13:52;101594.41;;;24.56;53.66
6028;BME280;3042;43.194;27.646;2023-04-28T05:16:20;101634.03;;;24.92;52.92
6028;BME280;3042;43.194;27.646;2023-04-28T05:18:48;101795.41;;;25.42;53.12
6028;BME280;3042;43.194;27.646;2023-04-28T05:21:17;101795.41;;;25.52;53.22
6028;BME280;3042;43.194;27.646;2023-04-28T05:23:44;101721.31;;;25.33;53.39
6028;BME280;3042;43.194;27.646;2023-04-28T05:26:16;101783.91;;;25.63;52.86
6028;BME280;3042;43.194;27.646;2023-04-28T05:28:45;101805.94;;;25.02;52.33
6028;BME280;3042;43.194;27.646;2023-04-28T05:31:20;101757.38;;;24.60;51.74
6028;BME280;3042;43.194;27.646;2023-04-28T05:33:50;101820.06;;;25.08;52.88
6028;BME280;3042;43.194;27.646;2023-04-28T05:36:25;101825.28;;;24.86;52.27
6028;BME280;3042;43.194;27.646;2023-04-28T05:38:54;101826.16;;;24.83;51.93
6028;BME280;3042;43.194;27.646;2023-04-28T05:41:26;101827.88;;;24.66;51.14
6028;BME280;3042;43.194;27.646;2023-04-28T05:43:56;101611.44;;;22.18;51.18
6028;BME280;3042;43.194;27.646;2023-04-28T05:46:36;101880.72;;;23.44;52.29
6028;BME280;3042;43.194;27.646;2023-04-28T05:49:17;101869.66;;;23.82;52.09
6028;BME280;3042;43.194;27.646;2023-04-28T05:51:44;101875.59;;;23.60;52.17
6028;BME280;3042;43.194;27.646;2023-04-28T05:54:12;101869.69;;;23.86;52.86
6028;BME280;3042;43.194;27.646;2023-04-28T05:56:40;101862.72;;;23.99;54.03
6028;BME280;3042;43.194;27.646;2023-04-28T05:59:08;101841.75;;;24.23;53.21
6028;BME280;3042;43.194;27.646;2023-04-28T06:01:35;101855.69;;;24.01;52.94
6028;BME280;3042;43.194;27.646;2023-04-28T06:04:03;101868.84;;;23.92;53.50
6028;BME280;3042;43.194;27.646;2023-04-28T06:06:30;101856.59;;;24.06;52.78
6028;BME280;3042;43.194;27.646;2023-04-28T06:08:58;101870.56;;;23.87;52.49
6028;BME280;3042;43.194;27.646;2023-04-28T06:11:26;101875.84;;;23.87;51.69
6028;BME280;3042;43.194;27.646;2023-04-28T06:13:55;101868.84;;;23.92;51.68
6028;BME280;3042;43.194;27.646;2023-04-28T06:16:52;101821.38;;;23.98;52.71
6028;BME280;3042;43.194;27.646;2023-04-28T06:19:31;101909.91;;;22.84;51.84
6028;BME280;3042;43.194;27.646;2023-04-28T06:22:01;101901.34;;;23.01;51.84
6028;BME280;3042;43.194;27.646;2023-04-28T06:24:33;101871.91;;;23.42;52.67
6028;BME280;3042;43.194;27.646;2023-04-28T06:27:07;101798.22;;;23.63;51.95
6028;BME280;3042;43.194;27.646;2023-04-28T06:29:51;101798.50;;;24.06;52.47
6028;BME280;3042;43.194;27.646;2023-04-28T06:32:25;101761.56;;;24.08;51.06
6028;BME280;3042;43.194;27.646;2023-04-28T06:34:58;101813.91;;;25.13;51.41
6028;BME280;3042;43.194;27.646;2023-04-28T06:37:30;101790.09;;;25.61;50.11
6028;BME280;3042;43.194;27.646;2023-04-28T06:40:10;101767.97;;;26.05;49.37
6028;BME280;3042;43.194;27.646;2023-04-28T06:42:38;101749.03;;;26.88;49.65
6028;BME280;3042;43.194;27.646;2023-04-28T06:45:08;101770.38;;;26.69;48.89
6028;BME280;3042;43.194;27.646;2023-04-28T06:47:36;101789.19;;;25.96;47.56
6028;BME280;3042;43.194;27.646;2023-04-28T06:50:06;101837.69;;;24.99;48.11
6028;BME280;3042;43.194;27.646;2023-04-28T06:52:33;101854.19;;;24.43;48.27
6028;BME280;3042;43.194;27.646;2023-04-28T06:55:04;101844.47;;;23.23;49.79
6028;BME280;3042;43.194;27.646;2023-04-28T06:57:31;101927.06;;;22.54;49.27
6028;BME280;3042;43.194;27.646;2023-04-28T07:00:02;101952.22;;;21.81;50.01
6028;BME280;3042;43.194;27.646;2023-04-28T07:02:35;101950.28;;;21.69;49.77
6028;BME280;3042;43.194;27.646;2023-04-28T07:05:03;101949.03;;;21.50;51.13
6028;BME280;3042;43.194;27.646;2023-04-28T07:07:30;101778.69;;;20.42;51.86
6028;BME280;3042;43.194;27.646;2023-04-28T07:10:00;101936.94;;;21.60;51.82
6028;BME280;3042;43.194;27.646;2023-04-28T07:12:29;101934.75;;;21.86;52.58
6028;BME280;3042;43.194;27.646;2023-04-28T07:14:57;101929.94;;;21.59;51.29
6028;BME280;3042;43.194;27.646;2023-04-28T07:17:27;101928.66;;;21.87;51.74
6028;BME280;3042;43.194;27.646;2023-04-28T07:19:59;101942.88;;;21.48;50.57
6028;BME280;3042;43.194;27.646;2023-04-28T07:22:29;101931.38;;;21.44;50.88
6028;BME280;3042;43.194;27.646;2023-04-28T07:25:01;101935.72;;;21.41;51.64
6028;BME280;3042;43.194;27.646;2023-04-28T07:27:30;101954.44;;;21.14;50.46
6028;BME280;3042;43.194;27.646;2023-04-28T07:29:58;101857.19;;;20.30;50.07
6028;BME280;3042;43.194;27.646;2023-04-28T07:32:30;101826.59;;;19.59;49.76
6028;BME280;3042;43.194;27.646;2023-04-28T07:35:35;101970.06;;;20.30;48.89
6028;BME280;3042;43.194;27.646;2023-04-28T07:38:08;101842.25;;;18.60;49.67
6028;BME280;3042;43.194;27.646;2023-04-28T07:40:35;101960.50;;;19.97;51.49
6028;BME280;3042;43.194;27.646;2023-04-28T07:43:28;101951.16;;;20.09;50.67
6028;BME280;3042;43.194;27.646;2023-04-28T07:45:56;101969.66;;;19.78;50.96
6028;BME280;3042;43.194;27.646;2023-04-28T07:48:28;101789.09;;;18.62;50.64
6028;BME280;3042;43.194;27.646;2023-04-28T07:50:58;101805.94;;;19.02;52.12
6028;BME280;3042;43.194;27.646;2023-04-28T07:53:26;101965.56;;;19.58;50.51
6028;BME280;3042;43.194;27.646;2023-04-28T07:55:53;101950.72;;;19.92;51.20
6028;BME280;3042;43.194;27.646;2023-04-28T07:58:21;101870.06;;;19.16;51.10
6028;BME280;3042;43.194;27.646;2023-04-28T08:00:48;101942.50;;;20.11;52.16
6028;BME280;3042;43.194;27.646;2023-04-28T08:03:18;101947.41;;;19.99;50.93
6028;BME280;3042;43.194;27.646;2023-04-28T08:05:46;101916.03;;;19.69;51.13
6028;BME280;3042;43.194;27.646;2023-04-28T08:08:18;101940.97;;;20.21;51.18
6028;BME280;3042;43.194;27.646;2023-04-28T08:10:45;101956.03;;;19.61;50.41
6028;BME280;3042;43.194;27.646;2023-04-28T08:13:12;101950.78;;;19.93;50.27
6028;BME280;3042;43.194;27.646;2023-04-28T08:15:43;101947.19;;;19.90;50.74
6028;BME280;3042;43.194;27.646;2023-04-28T08:18:10;101956.84;;;19.92;50.76
6028;BME280;3042;43.194;27.646;2023-04-28T08:20:44;101938.50;;;19.92;50.20
6028;BME280;3042;43.194;27.646;2023-04-28T08:23:13;101930.84;;;20.01;50.86
6028;BME280;3042;43.194;27.646;2023-04-28T08:25:41;101876.00;;;19.76;50.02
6028;BME280;3042;43.194;27.646;2023-04-28T08:28:08;101928.47;;;20.11;49.95
6028;BME280;3042;43.194;27.646;2023-04-28T08:30:35;101923.91;;;20.03;49.92
6028;BME280;3042;43.194;27.646;2023-04-28T08:33:03;101941.69;;;19.79;49.74
6028;BME280;3042;43.194;27.646;2023-04-28T08:35:30;101934.28;;;19.97;49.40
6028;BME280;3042;43.194;27.646;2023-04-28T08:37:58;101767.94;;;19.19;50.13
6028;BME280;3042;43.194;27.646;2023-04-28T08:40:27;101916.75;;;20.34;49.56
6028;BME280;3042;43.194;27.646;2023-04-28T08:42:56;101880.53;;;20.56;50.31
6028;BME280;3042;43.194;27.646;2023-04-28T08:45:23;101714.56;;;19.51;50.31
6028;BME280;3042;43.194;27.646;2023-04-28T08:47:50;101929.56;;;19.84;49.59
6028;BME280;3042;43.194;27.646;2023-04-28T08:50:20;101944.47;;;19.55;50.61
6028;BME280;3042;43.194;27.646;2023-04-28T08:52:47;101377.19;;;16.89;50.22
6028;BME280;3042;43.194;27.646;2023-04-28T08:55:17;101896.19;;;20.15;49.20
6028;BME280;3042;43.194;27.646;2023-04-28T08:57:48;101850.59;;;20.51;49.77
6028;BME280;3042;43.194;27.646;2023-04-28T09:00:17;101884.22;;;20.26;50.80
6028;BME280;3042;43.194;27.646;2023-04-28T09:02:45;101859.28;;;20.87;51.63
6028;BME280;3042;43.194;27.646;2023-04-28T09:05:13;101855.09;;;20.97;50.68
6028;BME280;3042;43.194;27.646;2023-04-28T09:07:40;101887.50;;;20.17;48.77
6028;BME280;3042;43.194;27.646;2023-04-28T09:10:15;101684.56;;;19.03;50.61
6028;BME280;3042;43.194;27.646;2023-04-28T09:12:45;101850.00;;;20.61;49.63
6028;BME280;3042;43.194;27.646;2023-04-28T09:15:27;101649.50;;;19.72;50.15
6028;BME280;3042;43.194;27.646;2023-04-28T09:17:55;101553.81;;;19.53;51.67
6028;BME280;3042;43.194;27.646;2023-04-28T09:20:23;101855.94;;;20.95;48.98
6028;BME280;3042;43.194;27.646;2023-04-28T09:22:52;101767.94;;;20.74;48.69
6028;BME280;3042;43.194;27.646;2023-04-28T09:25:20;101838.09;;;21.25;48.58
6028;BME280;3042;43.194;27.646;2023-04-28T09:27:50;101843.53;;;21.35;49.08
6028;BME280;3042;43.194;27.646;2023-04-28T09:30:17;101840.50;;;21.13;47.72
6028;BME280;3042;43.194;27.646;2023-04-28T09:32:44;101849.00;;;21.00;49.64
6028;BME280;3042;43.194;27.646;2023-04-28T09:35:12;101774.47;;;20.95;49.39
6028;BME280;3042;43.194;27.646;2023-04-28T09:37:39;101811.88;;;21.82;49.15
6028;BME280;3042;43.194;27.646;2023-04-28T09:40:09;101842.53;;;21.26;48.38
6028;BME280;3042;43.194;27.646;2023-04-28T09:42:38;101765.19;;;21.15;48.82
6028;BME280;3042;43.194;27.646;2023-04-28T09:48:12;101828.91;;;21.49;48.80
6028;BME280;3042;43.194;27.646;2023-04-28T09:50:39;101807.25;;;21.65;49.16
6028;BME280;3042;43.194;27.646;2023-04-28T09:53:08;101621.72;;;20.73;49.17
6028;BME280;3042;43.194;27.646;2023-04-28T09:55:42;101805.78;;;21.84;49.24
6028;BME280;3042;43.194;27.646;2023-04-28T09:58:12;101772.31;;;22.38;48.82
6028;BME280;3042;43.194;27.646;2023-04-28T10:00:40;101719.72;;;22.44;49.31
6028;BME280;3042;43.194;27.646;2023-04-28T10:03:11;101368.28;;;20.45;49.40
6028;BME280;3042;43.194;27.646;2023-04-28T10:05:38;101752.69;;;22.88;49.29
6028;BME280;3042;43.194;27.646;2023-04-28T10:08:05;101766.31;;;22.50;48.68
6028;BME280;3042;43.194;27.646;2023-04-28T10:10:33;101767.78;;;22.26;47.61
6028;BME280;3042;43.194;27.646;2023-04-28T10:13:01;101703.72;;;22.26;49.02
6028;BME280;3042;43.194;27.646;2023-04-28T10:15:29;101744.34;;;21.81;47.86
6028;BME280;3042;43.194;27.646;2023-04-28T10:17:58;101552.00;;;20.94;49.22
6028;BME280;3042;43.194;27.646;2023-04-28T10:20:28;101779.84;;;22.10;50.23
6028;BME280;3042;43.194;27.646;2023-04-28T10:22:59;101771.88;;;22.04;48.66
6028;BME280;3042;43.194;27.646;2023-04-28T10:25:36;101780.53;;;21.97;48.59
6028;BME280;3042;43.194;27.646;2023-04-28T10:28:05;101768.63;;;21.61;48.09
6028;BME280;3042;43.194;27.646;2023-04-28T10:30:32;101765.31;;;21.21;47.62
6028;BME280;3042;43.194;27.646;2023-04-28T10:33:21;101684.06;;;20.83;48.41
6028;BME280;3042;43.194;27.646;2023-04-28T10:35:50;101792.53;;;21.77;48.07
6028;BME280;3042;43.194;27.646;2023-04-28T10:38:18;101762.25;;;22.06;47.94
6028;BME280;3042;43.194;27.646;2023-04-28T10:40:48;101788.84;;;21.65;47.70
6028;BME280;3042;43.194;27.646;2023-04-28T10:43:35;101768.59;;;22.21;46.99
6028;BME280;3042;43.194;27.646;2023-04-28T10:46:08;101760.03;;;22.37;48.29
6028;BME280;3042;43.194;27.646;2023-04-28T10:48:55;101738.25;;;22.50;46.42
6028;BME280;3042;43.194;27.646;2023-04-28T10:51:30;101745.91;;;22.29;47.06
6028;BME280;3042;43.194;27.646;2023-04-28T10:54:17;101752.91;;;22.27;48.57
6028;BME280;3042;43.194;27.646;2023-04-28T10:57:20;101757.09;;;22.17;47.42
6028;BME280;3042;43.194;27.646;2023-04-28T10:59:48;101669.72;;;21.76;48.30
6028;BME280;3042;43.194;27.646;2023-04-28T11:02:38;101763.06;;;22.02;48.23
6028;BME280;3042;43.194;27.646;2023-04-28T11:11:18;101752.06;;;22.29;46.84
6028;BME280;3042;43.194;27.646;2023-04-28T11:13:46;101737.50;;;22.64;48.00
6028;BME280;3042;43.194;27.646;2023-04-28T11:16:15;101762.38;;;22.16;47.64
6028;BME280;3042;43.194;27.646;2023-04-28T11:21:32;101739.28;;;22.65;46.39
6028;BME280;3042;43.194;27.646;2023-04-28T11:24:00;101691.69;;;22.49;45.90
6028;BME280;3042;43.194;27.646;2023-04-28T11:26:37;101730.66;;;22.81;46.23
6028;BME280;3042;43.194;27.646;2023-04-28T11:29:07;101684.75;;;22.58;45.19
6028;BME280;3042;43.194;27.646;2023-04-28T11:31:36;101712.31;;;22.93;45.61
6028;BME280;3042;43.194;27.646;2023-04-28T11:34:06;101730.56;;;22.69;46.81
6028;BME280;3042;43.194;27.646;2023-04-28T11:36:37;101718.34;;;22.80;46.29
6028;BME280;3042;43.194;27.646;2023-04-28T11:39:06;101716.91;;;23.13;46.36
6028;BME280;3042;43.194;27.646;2023-04-28T11:41:37;101733.28;;;22.78;46.01
6028;BME280;3042;43.194;27.646;2023-04-28T11:44:12;101732.75;;;22.33;46.41
6028;BME280;3042;43.194;27.646;2023-04-28T11:46:46;101736.47;;;22.48;46.10
6028;BME280;3042;43.194;27.646;2023-04-28T11:49:16;101749.19;;;22.12;46.20
6028;BME280;3042;43.194;27.646;2023-04-28T11:51:43;101754.44;;;22.12;45.87
6028;BME280;3042;43.194;27.646;2023-04-28T11:54:13;101744.91;;;22.21;46.20
6028;BME280;3042;43.194;27.646;2023-04-28T11:56:41;101743.97;;;22.19;46.61
6028;BME280;3042;43.194;27.646;2023-04-28T11:59:11;101757.91;;;22.11;45.66
6028;BME280;3042;43.194;27.646;2023-04-28T12:01:46;101739.16;;;22.52;46.28
6028;BME280;3042;43.194;27.646;2023-04-28T12:04:13;101716.56;;;22.76;45.60
6028;BME280;3042;43.194;27.646;2023-04-28T12:06:42;101444.88;;;21.43;45.86
6028;BME280;3042;43.194;27.646;2023-04-28T12:09:17;101664.91;;;22.95;46.36
6028;BME280;3042;43.194;27.646;2023-04-28T12:11:54;101699.25;;;23.00;45.95
6028;BME280;3042;43.194;27.646;2023-04-28T12:14:23;101712.97;;;22.71;46.89
6028;BME280;3042;43.194;27.646;2023-04-28T12:16:52;101715.38;;;22.49;46.14
6028;BME280;3042;43.194;27.646;2023-04-28T12:19:19;101631.69;;;22.21;46.55
6028;BME280;3042;43.194;27.646;2023-04-28T12:22:00;101736.06;;;22.19;46.06
6028;BME280;3042;43.194;27.646;2023-04-28T12:24:29;101728.41;;;22.34;45.95
6028;BME280;3042;43.194;27.646;2023-04-28T12:27:18;101581.56;;;22.13;46.62
6028;BME280;3042;43.194;27.646;2023-04-28T12:29:48;101694.53;;;22.71;45.71
6028;BME280;3042;43.194;27.646;2023-04-28T12:32:15;101677.28;;;23.05;46.38
6028;BME280;3042;43.194;27.646;2023-04-28T12:34:44;101496.22;;;21.91;46.57
6028;BME280;3042;43.194;27.646;2023-04-28T12:37:12;101676.03;;;22.66;46.25
6028;BME280;3042;43.194;27.646;2023-04-28T12:39:41;101685.19;;;23.04;46.39
6028;BME280;3042;43.194;27.646;2023-04-28T12:42:08;101665.13;;;23.21;46.15
6028;BME280;3042;43.194;27.646;2023-04-28T12:44:37;101255.28;;;21.12;46.60
6028;BME280;3042;43.194;27.646;2023-04-28T12:47:06;101660.81;;;23.38;48.05
6028;BME280;3042;43.194;27.646;2023-04-28T12:49:35;101658.22;;;23.45;46.13
6028;BME280;3042;43.194;27.646;2023-04-28T12:52:03;101374.34;;;21.08;45.93
6028;BME280;3042;43.194;27.646;2023-04-28T12:54:31;101716.28;;;22.48;46.42
6028;BME280;3042;43.194;27.646;2023-04-28T12:56:58;101702.47;;;22.74;47.05
6028;BME280;3042;43.194;27.646;2023-04-28T12:59:25;101706.88;;;22.73;47.02
6028;BME280;3042;43.194;27.646;2023-04-28T13:01:54;101711.06;;;22.54;46.17
6028;BME280;3042;43.194;27.646;2023-04-28T13:04:22;101692.03;;;22.83;46.75
6028;BME280;3042;43.194;27.646;2023-04-28T13:06:49;101534.50;;;22.50;46.89
6028;BME280;3042;43.194;27.646;2023-04-28T13:09:16;101669.56;;;23.28;46.38
6028;BME280;3042;43.194;27.646;2023-04-28T13:11:43;101685.09;;;22.94;46.18
6028;BME280;3042;43.194;27.646;2023-04-28T13:14:10;101689.34;;;22.80;46.90
6028;BME280;3042;43.194;27.646;2023-04-28T13:16:38;101698.72;;;22.52;46.88
6028;BME280;3042;43.194;27.646;2023-04-28T13:19:06;101706.03;;;22.76;47.36
6028;BME280;3042;43.194;27.646;2023-04-28T13:21:35;101699.03;;;22.78;46.56